createdAt,value
2023-06-07T00:12:12.990Z,97.0
2023-06-07T00:25:12.969Z,97.0
2023-06-07T00:38:13.010Z,97.0
2023-06-07T00:51:13.046Z,97.0
2023-06-07T01:04:13.062Z,97.0
2023-06-07T01:17:13.086Z,97.0
2023-06-07T01:30:13.102Z,98.0
2023-06-07T01:43:13.054Z,98.0
2023-06-07T01:56:13.124Z,98.0
2023-06-07T02:09:13.199Z,98.0
2023-06-07T02:22:13.228Z,98.0
2023-06-07T02:35:13.364Z,98.0
2023-06-07T02:48:13.409Z,98.0
2023-06-07T03:01:13.420Z,98.0
2023-06-07T03:14:13.379Z,98.0
2023-06-07T03:27:13.434Z,98.0
2023-06-07T03:40:13.535Z,98.0
2023-06-07T03:53:13.540Z,98.0
2023-06-07T04:06:13.564Z,98.0
2023-06-07T04:19:13.581Z,97.0
2023-06-07T04:32:13.693Z,95.0
2023-06-07T04:45:13.631Z,94.0
2023-06-07T04:58:13.647Z,94.0
2023-06-07T05:11:13.722Z,93.0
2023-06-07T05:24:15.799Z,93.0
2023-06-07T05:37:13.718Z,92.0
2023-06-07T05:50:13.728Z,89.0
2023-06-07T06:03:13.805Z,88.0
2023-06-07T06:16:13.829Z,81.0
2023-06-07T06:29:13.862Z,70.0
2023-06-07T06:42:13.870Z,63.0
2023-06-07T06:55:13.897Z,61.0
2023-06-07T07:08:13.926Z,62.0
2023-06-07T07:21:13.919Z,60.0
2023-06-07T07:34:13.947Z,57.0
2023-06-07T07:47:13.931Z,60.0
2023-06-07T08:00:13.984Z,62.0
2023-06-07T08:13:13.996Z,63.0
2023-06-07T08:26:13.994Z,64.0
2023-06-07T08:39:13.966Z,62.0
2023-06-07T08:52:17.070Z,58.0
2023-06-07T09:05:14.010Z,57.0
2023-06-07T09:18:14.144Z,55.0
2023-06-07T09:31:14.047Z,55.0
2023-06-07T09:44:14.177Z,49.0
2023-06-07T09:57:14.056Z,49.0
2023-06-07T10:10:14.322Z,51.0
2023-06-07T10:23:14.151Z,56.0
2023-06-07T10:36:14.077Z,55.0
2023-06-07T10:49:14.061Z,53.0
2023-06-07T11:02:14.176Z,52.0
2023-06-07T11:15:14.133Z,51.0
2023-06-07T11:28:14.173Z,55.0
2023-06-07T11:41:14.156Z,57.0
2023-06-07T11:54:14.236Z,57.0
2023-06-07T12:07:14.246Z,57.0
2023-06-07T12:20:14.260Z,56.0
2023-06-07T12:33:14.296Z,60.0
2023-06-07T12:46:14.414Z,60.0
2023-06-07T12:59:14.371Z,60.0
2023-06-07T13:12:14.463Z,61.0
2023-06-07T13:25:14.472Z,60.0
2023-06-07T13:38:14.475Z,51.0
2023-06-07T13:51:14.531Z,51.0
2023-06-07T14:04:14.617Z,49.0
2023-06-07T14:17:14.541Z,45.0
2023-06-07T14:30:14.585Z,48.0
2023-06-07T14:43:14.587Z,49.0
2023-06-07T14:56:14.609Z,51.0
2023-06-07T15:09:14.685Z,50.0
2023-06-07T15:22:14.710Z,48.0
2023-06-07T15:35:14.691Z,53.0
2023-06-07T15:48:14.808Z,56.0
2023-06-07T16:01:14.780Z,52.0
2023-06-07T16:14:14.753Z,57.0
2023-06-07T16:27:14.714Z,61.0
2023-06-07T16:40:14.755Z,63.0
2023-06-07T16:53:14.756Z,65.0
2023-06-07T17:06:14.732Z,67.0
2023-06-07T17:19:14.766Z,68.0
2023-06-07T17:32:14.832Z,72.0
2023-06-07T17:45:14.786Z,74.0
2023-06-07T17:58:14.891Z,75.0
2023-06-07T18:11:14.876Z,75.0
2023-06-07T18:24:14.864Z,76.0
2023-06-07T18:37:14.805Z,79.0
2023-06-07T18:50:14.868Z,81.0
2023-06-07T19:03:14.866Z,84.0
2023-06-07T19:16:14.820Z,83.0
2023-06-07T19:29:14.841Z,82.0
2023-06-07T19:42:16.142Z,83.0
2023-06-07T19:55:14.935Z,82.0
2023-06-07T20:08:15.030Z,84.0
2023-06-07T20:21:15.307Z,85.0
2023-06-07T20:34:15.010Z,79.0
2023-06-07T20:47:15.088Z,80.0
2023-06-07T21:00:15.073Z,83.0
2023-06-07T21:13:15.369Z,83.0
2023-06-07T21:26:15.057Z,83.0
2023-06-07T21:39:15.055Z,85.0
2023-06-07T22:05:15.052Z,86.0
2023-06-07T22:18:14.902Z,87.0
2023-06-07T22:31:14.901Z,88.0
2023-06-07T22:44:14.927Z,90.0
2023-06-07T22:57:14.916Z,90.0
2023-06-07T23:10:14.937Z,91.0
2023-06-07T23:23:14.889Z,92.0
2023-06-07T23:36:14.906Z,91.0
2023-06-07T23:49:14.899Z,92.0
